Time;durP1;ratioP1;P1;durP2;ratioP2;P2;SDS_P1;SDS_P2;PMS_P1;PMS_P2;Temp;Humidity;BMP_temperature;BMP_pressure;BME280_temperature;BME280_humidity;BME280_pressure;Samples;Min_cycle;Max_cycle;Signal;HPM_P1;HPM_P2
2022/07/09 00:00:37;;;;;;;11.40;8.28;;;;;;;14.68;100.00;99336.37;1793855;78;21688;-69
2022/07/09 00:03:04;;;;;;;13.08;9.00;;;;;;;14.63;100.00;99337.77;1806427;78;21626;-69
2022/07/09 00:05:31;;;;;;;15.18;10.98;;;;;;;14.60;100.00;99336.45;1809145;78;21464;-69
2022/07/09 00:07:58;;;;;;;17.32;12.40;;;;;;;14.57;100.00;99337.80;1790263;78;20889;-70
2022/07/09 00:10:25;;;;;;;21.23;14.33;;;;;;;14.55;100.00;99337.30;1795288;78;21032;-69
2022/07/09 00:12:52;;;;;;;35.65;22.30;;;;;;;14.54;100.00;99340.28;1803181;78;21383;-70
2022/07/09 00:15:18;;;;;;;63.85;36.68;;;;;;;14.53;100.00;99336.78;1799123;78;20865;-70
2022/07/09 00:17:45;;;;;;;64.10;35.50;;;;;;;14.52;100.00;99339.17;1804370;78;21020;-70
2022/07/09 00:20:12;;;;;;;61.45;34.80;;;;;;;14.54;100.00;99337.58;1799094;78;20913;-69
2022/07/09 00:22:39;;;;;;;55.50;34.67;;;;;;;14.56;100.00;99342.16;1797212;78;20928;-70
2022/07/09 00:25:07;;;;;;;65.28;35.55;;;;;;;14.55;100.00;99341.36;1807774;78;21226;-70
2022/07/09 00:27:34;;;;;;;72.40;39.18;;;;;;;14.54;100.00;99338.92;1793346;78;20921;-70
2022/07/09 00:30:01;;;;;;;54.70;31.33;;;;;;;14.54;100.00;99337.58;1793623;78;21655;-69
2022/07/09 00:32:28;;;;;;;39.13;22.83;;;;;;;14.56;100.00;99334.84;1804602;78;20951;-70
2022/07/09 00:34:55;;;;;;;50.50;27.73;;;;;;;14.56;100.00;99334.84;1812519;78;21450;-70
2022/07/09 00:37:23;;;;;;;54.90;33.20;;;;;;;14.54;100.00;99338.37;1804445;78;21219;-70
2022/07/09 00:39:49;;;;;;;77.72;43.80;;;;;;;14.51;100.00;99336.77;1805836;78;20932;-70
2022/07/09 00:42:16;;;;;;;78.47;45.78;;;;;;;14.47;100.00;99341.12;1796259;78;20898;-70
2022/07/09 00:44:42;;;;;;;57.30;33.13;;;;;;;14.43;100.00;99338.20;1803171;78;20877;-69
2022/07/09 00:47:10;;;;;;;51.92;30.10;;;;;;;14.42;100.00;99343.88;1807184;78;20906;-70
2022/07/09 00:49:42;;;;;;;46.20;28.45;;;;;;;14.42;100.00;99344.67;1794603;78;21268;-70
2022/07/09 00:52:12;;;;;;;57.25;35.03;;;;;;;14.41;100.00;99344.97;1810944;78;21453;-70
2022/07/09 00:54:40;;;;;;;54.95;35.90;;;;;;;14.40;100.00;99342.80;1790209;78;20944;-70
2022/07/09 00:57:08;;;;;;;73.35;45.95;;;;;;;14.39;100.00;99337.14;1790144;78;20940;-69
2022/07/09 00:59:38;;;;;;;101.47;59.63;;;;;;;14.37;100.00;99330.67;1801797;78;20912;-70
2022/07/09 01:02:09;;;;;;;115.15;78.92;;;;;;;14.35;100.00;99334.74;1803091;78;21299;-70
2022/07/09 01:04:37;;;;;;;86.60;55.98;;;;;;;14.32;100.00;99340.16;1806141;78;20940;-70
2022/07/09 01:07:05;;;;;;;55.08;37.65;;;;;;;14.28;100.00;99336.44;1808952;78;20992;-70
2022/07/09 01:09:32;;;;;;;50.57;32.53;;;;;;;14.26;100.00;99335.91;1794806;78;20960;-70
2022/07/09 01:11:59;;;;;;;60.23;36.45;;;;;;;14.26;100.00;99341.31;1793361;77;20936;-70
2022/07/09 01:14:27;;;;;;;79.87;45.05;;;;;;;14.27;100.00;99333.47;1797368;78;21251;-70
2022/07/09 01:17:01;;;;;;;100.83;52.20;;;;;;;14.28;100.00;99336.96;1798461;78;21441;-70
2022/07/09 01:19:29;;;;;;;100.07;51.77;;;;;;;14.31;100.00;99337.77;1805113;78;22082;-70
2022/07/09 01:21:56;;;;;;;121.57;69.40;;;;;;;14.30;100.00;99334.80;1801820;78;21400;-70
2022/07/09 01:24:23;;;;;;;214.30;132.82;;;;;;;14.27;100.00;99334.81;1793853;78;21086;-70
2022/07/09 01:26:52;;;;;;;110.08;66.00;;;;;;;14.26;100.00;99335.12;1804469;78;21671;-70
2022/07/09 01:29:18;;;;;;;156.28;92.08;;;;;;;14.31;100.00;99339.12;1812564;78;20909;-71
2022/07/09 01:31:45;;;;;;;92.27;52.88;;;;;;;14.38;100.00;99342.30;1796778;78;21497;-70
2022/07/09 01:34:11;;;;;;;89.55;51.85;;;;;;;14.43;100.00;99338.20;1805315;78;21424;-70
2022/07/09 01:36:38;;;;;;;47.53;29.27;;;;;;;14.45;100.00;99332.49;1801718;78;20916;-70
2022/07/09 01:39:05;;;;;;;41.23;21.82;;;;;;;14.44;100.00;99337.09;1799985;78;21212;-70
2022/07/09 01:41:33;;;;;;;17.30;11.53;;;;;;;14.45;100.00;99334.64;1799107;78;21510;-70
2022/07/09 01:44:00;;;;;;;17.37;11.22;;;;;;;14.45;100.00;99328.45;1794682;78;20881;-70
2022/07/09 01:46:28;;;;;;;10.95;8.73;;;;;;;14.47;100.00;99330.32;1790228;78;21398;-70
2022/07/09 01:48:56;;;;;;;17.23;11.55;;;;;;;14.50;100.00;99332.44;1798523;78;21107;-71
2022/07/09 01:51:23;;;;;;;29.72;18.98;;;;;;;14.52;100.00;99335.67;1761283;78;21892;-70
2022/07/09 01:53:50;;;;;;;37.28;22.80;;;;;;;14.51;100.00;99330.02;1798890;78;20988;-70
2022/07/09 01:56:18;;;;;;;38.28;25.00;;;;;;;14.48;100.00;99334.09;1804530;78;20893;-70
2022/07/09 01:58:45;;;;;;;31.05;19.62;;;;;;;14.48;100.00;99338.70;1801775;78;21047;-69
2022/07/09 02:01:12;;;;;;;22.52;13.78;;;;;;;14.46;100.00;99337.63;1794666;78;20845;-69
2022/07/09 02:03:39;;;;;;;23.42;16.15;;;;;;;14.46;100.00;99342.22;1801345;79;21244;-70
2022/07/09 02:06:06;;;;;;;23.45;14.85;;;;;;;14.47;100.00;99333.02;1811800;78;21400;-70
2022/07/09 02:08:33;;;;;;;22.83;14.90;;;;;;;14.47;100.00;99335.72;1792412;78;21028;-70
2022/07/09 02:11:01;;;;;;;15.40;11.70;;;;;;;14.46;100.00;99328.17;1803596;78;21411;-69
2022/07/09 02:13:28;;;;;;;11.93;9.30;;;;;;;14.51;100.00;99332.72;1811645;78;20861;-70
2022/07/09 02:15:54;;;;;;;12.28;9.53;;;;;;;14.55;100.00;99331.91;1797794;78;21253;-70
2022/07/09 02:18:22;;;;;;;14.47;9.25;;;;;;;14.57;100.00;99332.95;1805833;78;21526;-70
2022/07/09 02:20:50;;;;;;;;;;;;;;;14.60;100.00;99335.63;1795359;78;20987;-69
2022/07/09 02:23:17;;;;;;;11.05;8.60;;;;;;;14.60;100.00;99342.38;1788522;79;20112;-70
2022/07/09 02:25:44;;;;;;;10.60;8.55;;;;;;;14.61;100.00;99345.35;1790952;79;20902;-70
2022/07/09 02:28:11;;;;;;;35.73;21.82;;;;;;;14.63;100.00;99348.03;1786050;79;21254;-70
2022/07/09 02:30:38;;;;;;;51.13;29.50;;;;;;;14.65;100.00;99345.02;1786996;79;20879;-70
2022/07/09 02:33:05;;;;;;;47.40;28.52;;;;;;;14.66;100.00;99340.70;1792757;79;20954;-70
2022/07/09 02:35:32;;;;;;;49.45;32.70;;;;;;;14.68;100.00;99337.72;1785565;79;20950;-69
2022/07/09 02:37:59;;;;;;;34.05;21.25;;;;;;;14.70;100.00;99332.81;1798362;79;20963;-69
2022/07/09 02:40:27;;;;;;;15.95;12.18;;;;;;;14.70;100.00;99331.46;1784489;79;21236;-69
2022/07/09 02:42:54;;;;;;;12.18;10.28;;;;;;;14.69;100.00;99326.61;1784574;79;20971;-69
2022/07/09 02:45:21;;;;;;;11.15;9.35;;;;;;;14.70;100.00;99331.46;1801654;78;21011;-69
2022/07/09 02:47:48;;;;;;;37.83;29.35;;;;;;;14.69;100.00;99325.81;1797423;78;21565;-69
2022/07/09 02:50:15;;;;;;;33.23;24.60;;;;;;;14.69;100.00;99325.81;1799228;78;20982;-69
2022/07/09 02:52:42;;;;;;;64.75;41.00;;;;;;;14.69;100.00;99322.55;1812947;78;21314;-68
2022/07/09 02:55:09;;;;;;;61.68;43.63;;;;;;;14.69;100.00;99312.30;1804817;78;21391;-69
2022/07/09 02:57:36;;;;;;;34.85;21.70;;;;;;;14.69;100.00;99315.80;1792082;78;20937;-68
2022/07/09 03:00:05;;;;;;;9.88;8.88;;;;;;;14.71;100.00;99319.58;1806510;78;21459;-68
2022/07/09 03:02:32;;;;;;;13.62;8.80;;;;;;;14.73;100.00;99318.75;1803350;78;20976;-70
2022/07/09 03:04:59;;;;;;;11.53;9.73;;;;;;;14.73;100.00;99323.61;1803782;78;21182;-70
2022/07/09 03:07:26;;;;;;;15.13;12.78;;;;;;;14.75;100.00;99323.33;1815104;78;20874;-70
2022/07/09 03:09:52;;;;;;;30.30;19.80;;;;;;;14.81;100.00;99324.07;1761210;77;21099;-70
2022/07/09 03:12:20;;;;;;;23.83;16.07;;;;;;;14.83;100.00;99325.39;1795992;78;21017;-69
2022/07/09 03:14:46;;;;;;;12.95;11.20;;;;;;;14.84;100.00;99329.69;1813468;78;20877;-69
2022/07/09 03:17:13;;;;;;;10.32;8.00;;;;;;;14.86;100.00;99331.56;1803885;78;21230;-70
2022/07/09 03:19:40;;;;;;;8.80;7.58;;;;;;;14.88;100.00;99331.29;1801808;78;20865;-71
2022/07/09 03:22:07;;;;;;;11.90;8.05;;;;;;;14.88;100.00;99331.29;1799211;78;20938;-70
2022/07/09 03:24:34;;;;;;;10.43;9.38;;;;;;;14.91;100.00;99334.76;1814486;78;20996;-70
2022/07/09 03:27:01;;;;;;;11.97;10.15;;;;;;;14.93;100.00;99340.69;1798882;78;20901;-70
2022/07/09 03:29:28;;;;;;;14.35;9.95;;;;;;;14.97;100.00;99339.03;1790298;78;21247;-70
2022/07/09 03:31:55;;;;;;;12.18;10.13;;;;;;;15.02;100.00;99344.38;1800143;78;21020;-70
2022/07/09 03:34:22;;;;;;;54.10;38.85;;;;;;;15.07;100.00;99347.02;1791203;78;20924;-70
2022/07/09 03:36:49;;;;;;;75.78;50.35;;;;;;;15.12;100.00;99348.86;1790272;78;21058;-70
2022/07/09 03:39:16;;;;;;;59.13;37.88;;;;;;;15.15;100.00;99346.37;1790554;78;21031;-71
2022/07/09 03:41:42;;;;;;;54.30;35.08;;;;;;;15.18;100.00;99343.63;1789544;78;22050;-70
2022/07/09 03:44:09;;;;;;;51.35;34.23;;;;;;;15.23;100.00;99346.27;1794537;78;21529;-70
2022/07/09 03:46:36;;;;;;;36.30;24.20;;;;;;;15.31;100.00;99344.30;1797421;78;21010;-70
2022/07/09 03:49:03;;;;;;;24.60;15.78;;;;;;;15.40;100.00;99347.14;1794811;78;20897;-71
2022/07/09 03:51:30;;;;;;;20.07;13.37;;;;;;;15.48;100.00;99351.89;1796465;78;21000;-71
2022/07/09 03:53:57;;;;;;;18.82;13.18;;;;;;;15.52;100.00;99351.58;1800807;78;21427;-70
2022/07/09 03:56:24;;;;;;;15.83;11.43;;;;;;;15.57;100.00;99354.20;1810655;78;20968;-70
2022/07/09 03:58:51;;;;;;;12.63;9.58;;;;;;;15.63;100.00;99357.11;1801732;78;20893;-71
2022/07/09 04:01:18;;;;;;;11.28;7.03;;;;;;;15.69;100.00;99359.75;1805054;78;20881;-70
2022/07/09 04:03:45;;;;;;;9.90;6.95;;;;;;;15.74;100.00;99367.82;1784264;78;20986;-71
2022/07/09 04:06:12;;;;;;;9.70;6.30;;;;;;;15.78;100.00;99367.50;1801730;78;21259;-70
2022/07/09 04:08:40;;;;;;;8.40;5.33;;;;;;;15.82;100.00;99369.86;1804459;78;20976;-71
2022/07/09 04:11:08;;;;;;;6.65;5.95;;;;;;;15.83;100.00;99373.64;1801647;78;20884;-70
2022/07/09 04:13:36;;;;;;;5.72;5.28;;;;;;;15.85;100.00;99374.70;1807113;78;21483;-71
2022/07/09 04:16:06;;;;;;;8.48;6.28;;;;;;;15.90;100.00;99373.28;1804531;78;20945;-71
2022/07/09 04:18:35;;;;;;;10.13;6.58;;;;;;;15.93;100.00;99372.69;1803207;78;21230;-71
2022/07/09 04:21:01;;;;;;;;;;;;;;;15.93;100.00;99373.23;1800013;78;20975;-71
2022/07/09 04:23:28;;;;;;;10.40;7.28;;;;;;;15.99;100.00;99378.81;1786214;79;20105;-71
2022/07/09 04:25:55;;;;;;;7.15;6.33;;;;;;;16.02;100.00;99380.41;1804070;78;20956;-70
2022/07/09 04:28:22;;;;;;;6.57;5.93;;;;;;;16.11;100.00;99377.81;1785887;78;21059;-72
2022/07/09 04:30:50;;;;;;;9.45;7.33;;;;;;;16.18;100.00;99377.45;1792989;78;21522;-72
2022/07/09 04:33:18;;;;;;;10.58;7.15;;;;;;;16.26;100.00;99381.63;1809576;78;20905;-71
2022/07/09 04:35:45;;;;;;;9.95;7.83;;;;;;;16.34;100.00;99384.24;1795440;78;20900;-71
2022/07/09 04:38:12;;;;;;;13.93;7.17;;;;;;;16.42;100.00;99388.97;1800585;78;21415;-68
2022/07/09 04:40:40;;;;;;;12.40;9.05;;;;;;;16.45;100.00;99394.34;1803476;78;20865;-72
2022/07/09 04:43:08;;;;;;;14.55;9.80;;;;;;;16.40;100.00;99389.81;1803919;78;21221;-71
2022/07/09 04:45:35;;;;;;;17.00;9.15;;;;;;;16.36;100.00;99385.28;1803459;78;20956;-70
2022/07/09 04:48:04;;;;;;;14.20;9.70;;;;;;;16.28;100.00;99386.20;1791285;78;20926;-71
2022/07/09 04:50:31;;;;;;;15.75;10.03;;;;;;;16.25;100.00;99383.30;1790283;78;21110;-72
2022/07/09 04:52:58;;;;;;;15.43;9.63;;;;;;;16.31;100.00;99384.02;1807525;78;21091;-71
2022/07/09 04:55:25;;;;;;;13.03;8.83;;;;;;;16.37;100.00;99386.91;1800066;78;22254;-70
2022/07/09 04:57:52;;;;;;;12.55;7.75;;;;;;;16.43;100.00;99379.73;1792702;78;20936;-70
2022/07/09 05:00:18;;;;;;;10.43;8.10;;;;;;;16.52;100.00;99380.43;1797354;78;20991;-69
2022/07/09 05:02:45;;;;;;;8.65;7.72;;;;;;;16.61;100.00;99381.33;1806218;78;20894;-70
2022/07/09 05:05:13;;;;;;;10.00;8.00;;;;;;;16.70;100.00;99373.57;1797526;78;20956;-69
2022/07/09 05:07:45;;;;;;;12.35;8.90;;;;;;;16.83;100.00;99376.11;1797376;78;21247;-70
2022/07/09 05:10:09;;;;;;;12.40;7.55;;;;;;;16.95;100.00;99378.30;1799297;78;20909;-70
2022/07/09 05:12:36;;;;;;;14.85;7.35;;;;;;;17.04;100.00;99379.22;1801374;78;20833;-70
2022/07/09 05:15:06;;;;;;;12.37;7.40;;;;;;;17.15;100.00;99378.48;1797581;78;21509;-69
2022/07/09 05:17:37;;;;;;;11.28;7.10;;;;;;;17.25;100.00;99380.19;1788719;78;20904;-71
2022/07/09 05:20:06;;;;;;;7.78;6.97;;;;;;;17.29;100.00;99373.04;1802382;78;21239;-70
2022/07/09 05:22:35;;;;;;;10.10;6.60;;;;;;;17.33;100.00;99377.56;1805977;78;20948;-71
2022/07/09 05:25:01;;;;;;;8.35;6.78;;;;;;;17.39;100.00;99377.45;1794716;78;21601;-71
2022/07/09 05:27:28;;;;;;;9.28;6.70;;;;;;;17.49;100.00;99370.45;1800705;78;20925;-70
2022/07/09 05:29:54;;;;;;;8.53;6.70;;;;;;;17.54;100.00;99370.34;1809673;78;20921;-69
2022/07/09 05:32:21;;;;;;;8.50;6.12;;;;;;;17.60;100.00;99375.92;1794883;78;21142;-70
2022/07/09 05:34:49;;;;;;;8.43;6.20;;;;;;;17.78;100.00;99375.52;1797528;78;21698;-70
2022/07/09 05:37:16;;;;;;;7.28;5.75;;;;;;;18.00;100.00;99373.42;1805804;78;21015;-70
2022/07/09 05:39:43;;;;;;;6.17;5.40;;;;;;;18.12;100.00;99370.16;1804398;78;21419;-70
2022/07/09 05:42:10;;;;;;;7.47;6.03;;;;;;;18.28;100.00;99373.33;1794608;78;20976;-70
2022/07/09 05:44:37;;;;;;;6.45;5.33;;;;;;;18.42;100.00;99373.51;1811181;78;21156;-70
2022/07/09 05:47:04;;;;;;;6.10;5.45;;;;;;;18.55;100.00;99371.81;1792159;78;20908;-70
2022/07/09 05:49:32;;;;;;;8.88;4.97;;;;;;;18.70;100.00;99371.18;1801875;78;21416;-70
2022/07/09 05:51:58;;;;;;;5.40;4.72;;;;;;;18.84;100.00;99367.28;1799222;78;20976;-70
2022/07/09 05:54:25;;;;;;;7.10;5.23;;;;;;;18.90;100.00;99369.30;1803754;78;20881;-70
2022/07/09 05:56:52;;;;;;;4.90;4.47;;;;;;;19.00;100.00;99362.22;1808866;78;21316;-70
2022/07/09 05:59:19;;;;;;;5.25;4.67;;;;;;;19.12;100.00;99356.75;1801681;78;21410;-70
2022/07/09 06:01:46;;;;;;;11.60;4.55;;;;;;;19.23;100.00;99357.51;1800930;78;20928;-68
2022/07/09 06:04:14;;;;;;;4.65;4.25;;;;;;;19.31;100.00;99357.84;1781512;77;21028;-69
2022/07/09 06:06:42;;;;;;;4.92;3.72;;;;;;;19.36;100.00;99348.97;1797968;78;21561;-69
2022/07/09 06:09:09;;;;;;;7.25;3.92;;;;;;;19.37;100.00;99350.56;1797457;78;21253;-68
2022/07/09 06:11:37;;;;;;;4.22;3.83;;;;;;;19.32;100.00;99347.99;1791253;78;20892;-69
2022/07/09 06:14:04;;;;;;;14.70;6.37;;;;;;;19.36;100.00;99340.80;1806005;78;21451;-69
2022/07/09 06:16:31;;;;;;;10.43;5.53;;;;;;;19.38;100.00;99335.06;1800903;78;20932;-69
2022/07/09 06:18:58;;;;;;;13.53;6.28;;;;;;;19.32;100.00;99337.11;1799935;78;20977;-69
2022/07/09 06:21:25;;;;;;;17.00;7.67;;;;;;;19.22;100.00;99341.48;1794737;78;21242;-69
2022/07/09 06:23:51;;;;;;;15.20;6.70;;;;;;;19.12;100.00;99331.70;1801869;78;21004;-70
2022/07/09 06:26:20;;;;;;;8.25;5.20;;;;;;;19.12;100.00;99324.10;1790324;78;20858;-70
2022/07/09 06:28:48;;;;;;;10.55;5.35;;;;;;;19.14;100.00;99319.16;1794845;78;21169;-68
2022/07/09 06:31:15;;;;;;;12.18;5.47;;;;;;;19.06;100.00;99320.73;1802207;78;20983;-69
2022/07/09 06:33:42;;;;;;;5.05;4.47;;;;;;;19.01;100.00;99324.94;1788735;78;21255;-70
2022/07/09 06:36:09;;;;;;;5.28;4.78;;;;;;;18.97;100.00;99317.98;1798926;78;21363;-69
2022/07/09 06:39:44;;;;;;;11.97;5.03;;;;;;;18.94;100.00;99311.81;1790198;78;21004;-70
2022/07/09 06:41:05;;;;;;;9.43;5.37;;;;;;;18.92;100.00;99305.09;1803130;78;20964;-70
2022/07/09 06:43:32;;;;;;;7.97;4.67;;;;;;;18.85;100.00;99296.02;1809936;78;21003;-70
2022/07/09 06:45:59;;;;;;;9.75;4.80;;;;;;;18.84;100.00;99306.10;1796630;78;21450;-69
2022/07/09 06:48:26;;;;;;;13.18;5.80;;;;;;;18.83;100.00;99299.61;1791169;78;21064;-69
2022/07/09 06:50:53;;;;;;;9.63;6.55;;;;;;;18.83;100.00;99298.25;1797811;78;21486;-69
2022/07/09 06:53:20;;;;;;;12.80;6.85;;;;;;;18.87;100.00;99294.36;1805616;78;21432;-69
2022/07/09 06:55:47;;;;;;;9.80;6.22;;;;;;;18.83;100.00;99294.97;1799060;78;21533;-69
2022/07/09 06:58:15;;;;;;;12.45;6.78;;;;;;;18.79;100.00;99291.30;1800554;78;21238;-70
2022/07/09 07:00:42;;;;;;;23.90;9.80;;;;;;;18.70;100.00;99289.06;1794857;78;20837;-69
2022/07/09 07:03:09;;;;;;;12.88;7.60;;;;;;;18.62;100.00;99291.20;1803935;78;21398;-70
2022/07/09 07:05:37;;;;;;;9.53;7.65;;;;;;;18.62;100.00;99291.20;1800881;78;20953;-69
2022/07/09 07:08:04;;;;;;;15.08;10.90;;;;;;;18.51;100.00;99286.58;1807347;78;20976;-69
2022/07/09 07:10:31;;;;;;;19.60;11.50;;;;;;;18.40;100.00;99286.06;1797693;78;21244;-67
2022/07/09 07:12:58;;;;;;;13.10;9.93;;;;;;;18.27;100.00;99272.55;1797138;78;20932;-70
2022/07/09 07:15:25;;;;;;;8.38;7.30;;;;;;;18.27;100.00;99272.55;1806156;78;20915;-68
2022/07/09 07:17:52;;;;;;;10.55;6.85;;;;;;;18.27;100.00;99278.78;1799323;78;21002;-68
2022/07/09 07:20:22;;;;;;;8.18;7.10;;;;;;;18.29;100.00;99278.48;1790249;78;21102;-69
2022/07/09 07:22:49;;;;;;;9.00;6.50;;;;;;;18.33;100.00;99280.83;1807660;78;21956;-69
2022/07/09 07:25:15;;;;;;;8.63;4.60;;;;;;;18.40;100.00;99283.91;1806240;78;20845;-70
2022/07/09 07:27:42;;;;;;;6.17;4.30;;;;;;;18.38;100.00;99281.48;1808682;78;20916;-69
2022/07/09 07:30:10;;;;;;;5.40;4.53;;;;;;;18.42;100.00;99279.76;1802284;78;20897;-69
2022/07/09 07:32:37;;;;;;;6.70;4.10;;;;;;;18.49;100.00;99283.93;1800589;78;20908;-70
2022/07/09 07:35:05;;;;;;;10.40;5.10;;;;;;;18.61;100.00;99284.94;1791983;78;21140;-69
2022/07/09 07:37:31;;;;;;;5.10;4.28;;;;;;;18.61;100.00;99284.94;1795042;78;21810;-69
2022/07/09 07:39:59;;;;;;;8.45;5.25;;;;;;;18.66;100.00;99281.84;1803773;78;20873;-70
2022/07/09 07:42:26;;;;;;;7.72;4.40;;;;;;;18.70;100.00;99280.91;1798110;78;20945;-70
2022/07/09 07:44:53;;;;;;;9.55;4.70;;;;;;;18.74;100.00;99281.89;1790151;78;20917;-68
2022/07/09 07:47:19;;;;;;;10.45;5.25;;;;;;;18.74;100.00;99281.89;1801134;78;21263;-69
2022/07/09 07:49:46;;;;;;;8.30;4.53;;;;;;;18.78;100.00;99277.44;1799995;78;21530;-68
2022/07/09 07:52:13;;;;;;;7.72;5.00;;;;;;;18.83;100.00;99280.58;1808736;78;20985;-69
2022/07/09 07:54:40;;;;;;;9.80;4.43;;;;;;;18.88;100.00;99270.91;1794950;78;20909;-69
2022/07/09 07:57:08;;;;;;;;;;;;;;;18.96;100.00;99276.95;1805890;78;21448;-68
2022/07/09 07:59:35;;;;;;;9.13;4.10;;;;;;;19.05;100.00;99279.11;1812079;78;21267;-68
2022/07/09 08:02:04;;;;;;;6.87;4.25;;;;;;;19.18;100.00;99283.38;1794652;78;21561;-68
2022/07/09 08:04:31;;;;;;;6.50;3.80;;;;;;;19.34;100.00;99272.85;1796771;78;20932;-68
2022/07/09 08:07:01;;;;;;;5.92;4.25;;;;;;;19.55;100.00;99280.64;1797401;78;20969;-68
2022/07/09 08:09:29;;;;;;;5.40;4.08;;;;;;;19.73;100.00;99278.73;1801515;78;20965;-68
2022/07/09 08:11:56;;;;;;;12.23;5.00;;;;;;;19.97;100.00;99275.52;1803823;78;21242;-68
2022/07/09 08:14:23;;;;;;;8.48;3.65;;;;;;;20.13;100.00;99274.42;1804160;78;21479;-68
2022/07/09 08:16:51;;;;;;;6.55;3.85;;;;;;;20.31;100.00;99282.81;1801688;78;20908;-68
2022/07/09 08:19:18;;;;;;;6.10;4.22;;;;;;;20.42;100.00;99275.64;1797383;78;20884;-69
2022/07/09 08:21:45;;;;;;;9.00;4.50;;;;;;;20.44;100.00;99280.20;1812571;78;20989;-67
2022/07/09 08:24:13;;;;;;;5.30;4.10;;;;;;;20.47;100.00;99276.25;1806498;78;20956;-69
2022/07/09 08:26:40;;;;;;;7.17;4.58;;;;;;;20.54;100.00;99274.39;1812279;78;20865;-68
2022/07/09 08:29:07;;;;;;;5.60;4.12;;;;;;;20.73;100.00;99276.19;1802868;78;20889;-69
2022/07/09 08:31:34;;;;;;;13.75;4.83;;;;;;;20.72;100.00;99280.02;1798344;78;20920;-68
2022/07/09 08:34:01;;;;;;;5.33;3.92;;;;;;;20.84;100.00;99277.17;1776077;78;20984;-69
2022/07/09 08:36:29;;;;;;;11.17;3.90;;;;;;;21.17;100.00;99280.05;1803749;78;22162;-70
2022/07/09 08:38:56;;;;;;;6.87;3.83;;;;;;;21.29;100.00;99284.22;1796997;78;20972;-69
2022/07/09 08:41:23;;;;;;;6.08;2.90;;;;;;;21.36;100.00;99279.03;1794591;78;20928;-73
2022/07/09 08:43:51;;;;;;;4.55;3.60;;;;;;;21.37;100.00;99275.73;1800140;78;21403;-69
2022/07/09 08:46:18;;;;;;;8.25;4.03;;;;;;;21.17;100.00;99267.77;1807260;78;20966;-68
2022/07/09 08:48:45;;;;;;;3.90;3.23;;;;;;;21.27;100.00;99273.40;1794983;78;21223;-70
2022/07/09 08:51:14;;;;;;;4.37;3.98;;;;;;;21.23;100.00;99264.27;1800008;78;20925;-70
2022/07/09 08:53:42;;;;;;;6.67;3.92;;;;;;;21.14;100.00;99260.22;1811697;78;20909;-69
2022/07/09 08:56:10;;;;;;;7.53;4.30;;;;;;;21.13;100.00;99264.09;1797908;78;21043;-69
2022/07/09 08:58:39;;;;;;;6.12;3.40;;;;;;;21.42;100.00;99271.47;1796001;78;21466;-69
2022/07/09 09:01:06;;;;;;;10.58;3.95;;;;;;;21.20;100.00;99256.18;1809046;78;21214;-69
2022/07/09 09:08:20;;;;;;;8.48;4.05;;;;;;;21.33;100.00;99265.23;1797640;78;20898;-69
2022/07/09 09:10:47;;;;;;;8.85;4.08;;;;;;;21.46;100.00;99266.12;1782108;78;20952;-70
2022/07/09 09:13:16;;;;;;;10.75;3.30;;;;;;;21.61;100.00;99270.43;1769785;78;20950;-70
2022/07/09 09:15:44;;;;;;;10.72;3.37;;;;;;;21.52;100.00;99266.17;1790497;78;21129;-70
2022/07/09 09:18:12;;;;;;;8.13;3.40;;;;;;;21.43;100.00;99264.07;1768270;79;20964;-70
2022/07/09 09:20:45;;;;;;;6.12;3.27;;;;;;;21.39;100.00;99263.95;1798571;78;20912;-70
2022/07/09 09:23:16;;;;;;;3.12;2.80;;;;;;;21.45;100.00;99265.91;1799808;78;21015;-68
2022/07/09 09:25:44;;;;;;;5.20;3.33;;;;;;;21.44;100.00;99256.92;1784023;78;20925;-69
2022/07/09 09:28:14;;;;;;;3.30;3.00;;;;;;;21.34;100.00;99255.93;1777162;78;21446;-70
2022/07/09 09:30:46;;;;;;;6.00;4.17;;;;;;;21.47;100.00;99253.52;1842168;77;20906;-71
2022/07/09 09:33:18;;;;;;;5.60;3.50;;;;;;;21.55;100.00;99252.64;1840113;76;20943;-70
2022/07/09 09:35:44;;;;;;;3.30;2.92;;;;;;;21.65;100.00;99253.37;1803693;77;20979;-71
2022/07/09 09:38:11;;;;;;;3.73;3.17;;;;;;;21.64;100.00;99254.52;1819016;77;21060;-71
2022/07/09 09:40:42;;;;;;;5.92;2.92;;;;;;;21.61;100.00;99245.85;1811551;77;21469;-70
2022/07/09 09:43:09;;;;;;;4.28;2.90;;;;;;;21.64;100.00;99249.84;1798537;77;20907;-70
2022/07/09 09:45:36;;;;;;;5.07;2.93;;;;;;;21.67;100.00;99247.80;1849297;77;20945;-70
2022/07/09 09:48:03;;;;;;;4.78;2.75;;;;;;;21.67;100.00;99247.80;1848751;77;21020;-70
2022/07/09 09:50:30;;;;;;;5.28;2.60;;;;;;;21.85;100.00;99242.97;1840547;77;20875;-70
2022/07/09 09:52:57;;;;;;;3.67;2.55;;;;;;;21.98;100.00;99243.25;1835136;76;21295;-70
2022/07/09 09:55:24;;;;;;;8.08;2.83;;;;;;;22.20;100.00;99242.66;1805225;77;20922;-71
2022/07/09 09:57:50;;;;;;;5.37;2.85;;;;;;;22.18;100.00;99244.32;1829141;76;21080;-69
2022/07/09 10:00:17;;;;;;;9.18;3.05;;;;;;;22.26;100.00;99239.92;1803927;77;20966;-69
2022/07/09 10:02:46;;;;;;;8.00;3.05;;;;;;;22.33;97.11;99242.10;1818075;76;21038;-69
2022/07/09 10:05:13;;;;;;;5.12;3.10;;;;;;;22.28;96.82;99239.02;1820830;77;21121;-68
2022/07/09 10:07:41;;;;;;;5.92;3.00;;;;;;;22.32;92.25;99241.86;1837425;76;20923;-69
2022/07/09 10:10:20;;;;;;;7.55;2.87;;;;;;;22.35;91.82;99250.19;1837210;76;20930;-70
2022/07/09 10:12:48;;;;;;;6.17;3.20;;;;;;;22.41;98.66;99246.09;1847389;77;21010;-69
2022/07/09 10:15:29;;;;;;;5.10;2.62;;;;;;;22.46;94.79;99246.44;1834789;77;21408;-71
2022/07/09 10:17:57;;;;;;;8.43;3.20;;;;;;;22.53;91.50;99245.87;1830932;77;21257;-70
2022/07/09 10:20:33;;;;;;;5.60;3.45;;;;;;;22.63;84.32;99250.89;1830636;76;21135;-70
2022/07/09 10:23:01;;;;;;;13.32;3.92;;;;;;;22.69;86.48;99255.02;1821251;77;21493;-69
2022/07/09 10:25:31;;;;;;;7.95;4.10;;;;;;;22.67;90.52;99247.71;1843871;77;21424;-70
2022/07/09 10:27:57;;;;;;;12.43;4.33;;;;;;;22.77;91.31;99247.83;1844846;77;20920;-70
2022/07/09 10:30:32;;;;;;;5.12;3.40;;;;;;;22.68;95.10;99236.98;1826452;77;21152;-70
2022/07/09 10:33:21;;;;;;;8.55;3.65;;;;;;;22.73;100.00;99236.75;1835942;76;20897;-70
2022/07/09 10:35:51;;;;;;;7.85;3.37;;;;;;;22.84;96.91;99236.53;1833313;76;20947;-72
2022/07/09 10:38:19;;;;;;;7.15;3.08;;;;;;;22.94;97.63;99238.58;1841231;76;21064;-71
2022/07/09 10:40:49;;;;;;;7.87;3.60;;;;;;;22.98;96.99;99237.58;1825306;77;21019;-71
2022/07/09 10:43:17;;;;;;;2.67;2.47;;;;;;;23.04;91.96;99241.66;1836192;76;21970;-70
2022/07/09 10:45:45;;;;;;;4.17;2.60;;;;;;;22.96;89.98;99230.25;1835848;77;20899;-70
2022/07/09 10:48:16;;;;;;;6.25;3.20;;;;;;;23.02;92.53;99230.84;1835411;76;21068;-69
2022/07/09 10:50:49;;;;;;;8.90;3.80;;;;;;;23.21;97.75;99224.19;1839779;76;21464;-69
2022/07/09 10:53:13;;;;;;;4.25;3.40;;;;;;;23.24;87.53;99225.43;1848540;76;21069;-70
2022/07/09 10:55:47;;;;;;;7.45;4.00;;;;;;;22.95;78.85;99219.06;1817917;76;21214;-70
2022/07/09 10:58:21;;;;;;;9.93;3.52;;;;;;;22.86;88.58;99223.31;1847918;76;21480;-70
2022/07/09 11:00:57;;;;;;;5.87;3.55;;;;;;;22.95;91.02;99221.80;1831913;76;21163;-69
2022/07/09 11:03:29;;;;;;;4.95;3.35;;;;;;;23.03;86.52;99214.08;1808371;77;20939;-70
2022/07/09 11:05:56;;;;;;;7.95;3.47;;;;;;;23.12;81.82;99213.94;1807863;77;20859;-70
2022/07/09 11:08:24;;;;;;;4.67;2.65;;;;;;;23.11;83.69;99206.88;1837329;76;21306;-69
2022/07/09 11:10:52;;;;;;;3.25;2.10;;;;;;;23.13;76.18;99206.52;1848887;76;21677;-69
2022/07/09 11:13:25;;;;;;;6.87;2.90;;;;;;;22.87;69.62;99203.00;1811287;77;21531;-70
2022/07/09 11:16:01;;;;;;;6.80;3.42;;;;;;;22.67;73.44;99200.63;1845778;77;20922;-69
2022/07/09 11:18:29;;;;;;;6.65;3.10;;;;;;;22.59;76.89;99199.40;1805451;76;20871;-70
2022/07/09 11:20:56;;;;;;;32.75;17.45;;;;;;;22.74;77.61;99203.38;1836258;77;21309;-70
2022/07/09 11:23:23;;;;;;;20.97;9.45;;;;;;;22.76;74.59;99197.79;1819741;77;21026;-71
2022/07/09 11:25:50;;;;;;;10.10;3.62;;;;;;;22.95;75.99;99197.17;1828001;77;20910;-70